Time;durP1;ratioP1;P1;durP2;ratioP2;P2;SDS_P1;SDS_P2;PMS_P1;PMS_P2;Temp;Humidity;BMP_temperature;BMP_pressure;BME280_temperature;BME280_humidity;BME280_pressure;Samples;Min_cycle;Max_cycle;Signal;HPM_P1;HPM_P2
2024/03/21 00:00:10;0.00;0.00;0.62;0.00;0.00;0.62;11.13;9.93;;;25.30;26.20;;;;;;2262987;61;20452;-64
2024/03/21 00:02:38;0.00;0.00;0.62;0.00;0.00;0.62;10.60;9.50;;;25.30;25.70;;;;;;2262776;61;20829;-65
2024/03/21 00:05:06;0.00;0.00;0.62;0.00;0.00;0.62;11.00;9.83;;;25.20;25.60;;;;;;2263650;61;20353;-65
2024/03/21 00:07:32;0.00;0.00;0.62;0.00;0.00;0.62;12.30;9.33;;;25.30;25.70;;;;;;2263002;61;20650;-65
2024/03/21 00:09:59;0.00;0.00;0.62;0.00;0.00;0.62;9.97;8.90;;;25.30;25.70;;;;;;2259591;61;20346;-64
2024/03/21 00:12:25;0.00;0.00;0.62;0.00;0.00;0.62;9.03;8.10;;;25.30;25.70;;;;;;2263296;61;20349;-65
2024/03/21 00:14:53;0.00;0.00;0.62;0.00;0.00;0.62;10.23;8.43;;;25.30;25.70;;;;;;2262981;61;20926;-65
2024/03/21 00:17:19;0.00;0.00;0.62;0.00;0.00;0.62;11.30;9.30;;;25.30;25.70;;;;;;2263468;61;20395;-64
2024/03/21 00:19:45;0.00;0.00;0.62;0.00;0.00;0.62;9.30;8.40;;;25.30;25.70;;;;;;2259482;61;20348;-65
2024/03/21 00:22:11;0.00;0.00;0.62;0.00;0.00;0.62;10.03;8.43;;;25.20;25.70;;;;;;2263096;61;20376;-64
2024/03/21 00:24:38;0.00;0.00;0.62;0.00;0.00;0.62;10.27;9.30;;;25.30;25.70;;;;;;2263457;61;20399;-65
2024/03/21 00:27:05;0.00;0.00;0.62;0.00;0.00;0.62;11.20;10.10;;;25.20;25.70;;;;;;2263463;61;20380;-65
2024/03/21 00:29:31;0.00;0.00;0.62;0.00;0.00;0.62;9.13;8.03;;;25.20;25.70;;;;;;2263236;61;20423;-65
2024/03/21 00:31:58;0.00;0.00;0.62;0.00;0.00;0.62;10.47;8.93;;;25.20;25.70;;;;;;2263208;61;20345;-64
2024/03/21 00:34:25;0.00;0.00;0.62;0.00;0.00;0.62;8.30;7.43;;;25.20;25.70;;;;;;2262949;61;20384;-65
2024/03/21 00:36:51;0.00;0.00;0.62;0.00;0.00;0.62;8.33;7.40;;;25.20;25.70;;;;;;2259028;61;20409;-65
2024/03/21 00:39:23;0.00;0.00;0.62;0.00;0.00;0.62;10.20;8.60;;;25.20;25.70;;;;;;2263031;61;20349;-64
2024/03/21 00:41:49;0.00;0.00;0.62;0.00;0.00;0.62;8.90;8.00;;;25.20;25.70;;;;;;2263248;61;20371;-65
2024/03/21 00:44:15;0.00;0.00;0.62;0.00;0.00;0.62;10.13;9.13;;;25.20;25.70;;;;;;2263083;61;20358;-66
2024/03/21 00:46:41;0.00;0.00;0.62;0.00;0.00;0.62;9.70;8.70;;;25.20;25.80;;;;;;2263145;61;20805;-65
2024/03/21 00:49:10;0.00;0.00;0.62;0.00;0.00;0.62;10.73;8.07;;;25.20;25.70;;;;;;2263096;61;20769;-65
2024/03/21 00:51:36;0.00;0.00;0.62;0.00;0.00;0.62;10.80;8.60;;;25.20;25.80;;;;;;2263105;61;20360;-65
2024/03/21 00:54:02;0.00;0.00;0.62;0.00;0.00;0.62;9.17;8.20;;;25.20;25.80;;;;;;2262951;61;20364;-65
2024/03/21 00:56:28;0.00;0.00;0.62;0.00;0.00;0.62;11.23;8.17;;;25.20;25.80;;;;;;2259350;61;20953;-65
2024/03/21 00:58:58;0.00;0.00;0.62;0.00;0.00;0.62;8.37;7.50;;;25.20;25.80;;;;;;2263124;61;20345;-65
2024/03/21 01:01:25;0.00;0.00;0.62;0.00;0.00;0.62;9.57;7.80;;;25.20;25.80;;;;;;2262746;61;20624;-65
2024/03/21 01:03:51;0.00;0.00;0.62;0.00;0.00;0.62;9.03;7.90;;;25.20;25.80;;;;;;2262769;61;20790;-66
2024/03/21 01:06:18;0.00;0.00;0.62;0.00;0.00;0.62;10.33;8.20;;;25.20;25.80;;;;;;2263166;61;20883;-66
2024/03/21 01:08:44;0.00;0.00;0.62;0.00;0.00;0.62;7.93;7.13;;;25.20;25.80;;;;;;2263019;61;20364;-65
2024/03/21 01:11:11;0.00;0.00;0.62;0.00;0.00;0.62;8.17;7.03;;;25.20;25.80;;;;;;2263273;61;20356;-65
2024/03/21 01:13:37;0.00;0.00;0.62;0.00;0.00;0.62;8.30;7.20;;;25.20;26.40;;;;;;2263035;61;20389;-65
2024/03/21 01:16:08;0.00;0.00;0.62;0.00;0.00;0.62;9.03;8.07;;;25.20;25.80;;;;;;2262968;61;20442;-66
2024/03/21 01:18:37;0.00;0.00;0.62;0.00;0.00;0.62;8.07;7.10;;;25.20;25.80;;;;;;2263036;61;21209;-66
2024/03/21 01:21:05;0.00;0.00;0.62;0.00;0.00;0.62;7.10;6.47;;;25.20;25.80;;;;;;2263184;61;20357;-64
2024/03/21 01:23:33;0.00;0.00;0.62;0.00;0.00;0.62;8.93;8.00;;;25.20;25.80;;;;;;2263029;61;20962;-65
2024/03/21 01:26:00;0.00;0.00;0.62;0.00;0.00;0.62;8.10;7.00;;;25.20;25.80;;;;;;2263210;61;20377;-66
2024/03/21 01:28:26;0.00;0.00;0.62;0.00;0.00;0.62;8.00;7.13;;;25.20;25.90;;;;;;2263251;61;20345;-65
2024/03/21 01:30:53;0.00;0.00;0.62;0.00;0.00;0.62;7.73;6.90;;;25.20;25.90;;;;;;2262983;61;20361;-65
2024/03/21 01:33:19;0.00;0.00;0.62;0.00;0.00;0.62;8.73;7.10;;;25.20;25.90;;;;;;2263144;61;20349;-65
2024/03/21 01:35:45;0.00;0.00;0.62;0.00;0.00;0.62;8.60;7.70;;;25.20;25.80;;;;;;2262839;61;20914;-65
2024/03/21 01:38:13;0.00;0.00;0.62;0.00;0.00;0.62;7.03;5.80;;;25.10;25.80;;;;;;2263274;61;20368;-65
2024/03/21 01:40:41;0.00;0.00;0.62;0.00;0.00;0.62;9.43;7.37;;;25.20;25.90;;;;;;2262952;61;20414;-65
2024/03/21 01:43:20;0.00;0.00;0.62;0.00;0.00;0.62;7.10;6.50;;;25.20;25.90;;;;;;2259187;61;20373;-65
2024/03/21 01:46:12;0.00;0.00;0.62;0.00;0.00;0.62;7.20;6.20;;;25.20;25.90;;;;;;2262968;61;20450;-65
2024/03/21 01:48:39;0.00;0.00;0.62;0.00;0.00;0.62;7.37;6.50;;;25.20;25.90;;;;;;2263709;61;20755;-64
2024/03/21 01:51:06;0.00;0.00;0.62;0.00;0.00;0.62;6.63;6.03;;;25.20;25.90;;;;;;2263668;61;20361;-65
2024/03/21 01:53:33;0.00;0.00;0.62;0.00;0.00;0.62;7.60;6.80;;;25.20;25.90;;;;;;2263945;61;20767;-66
2024/03/21 01:56:02;0.00;0.00;0.62;0.00;0.00;0.62;8.77;7.10;;;25.10;25.90;;;;;;2263112;61;20416;-65
2024/03/21 01:58:28;0.00;0.00;0.62;0.00;0.00;0.62;7.63;6.83;;;25.20;25.90;;;;;;2263386;61;20384;-65
2024/03/21 02:00:55;0.00;0.00;0.62;0.00;0.00;0.62;7.20;6.50;;;25.20;25.90;;;;;;2263434;61;20440;-65
2024/03/21 02:03:21;0.00;0.00;0.62;0.00;0.00;0.62;7.30;6.23;;;25.20;25.90;;;;;;2260855;61;20484;-65
2024/03/21 02:05:47;0.00;0.00;0.62;0.00;0.00;0.62;7.50;6.60;;;25.20;25.90;;;;;;2263110;61;20377;-64
2024/03/21 02:08:13;0.00;0.00;0.62;0.00;0.00;0.62;6.80;6.10;;;25.10;25.90;;;;;;2263653;61;20449;-65
2024/03/21 02:10:39;0.00;0.00;0.62;0.00;0.00;0.62;6.93;6.30;;;25.20;25.90;;;;;;2263323;61;20368;-65
2024/03/21 02:13:07;0.00;0.00;0.62;0.00;0.00;0.62;7.43;6.43;;;25.10;25.90;;;;;;2263166;61;20353;-65
2024/03/21 02:15:33;0.00;0.00;0.62;0.00;0.00;0.62;7.20;6.50;;;25.10;25.90;;;;;;2263672;61;20359;-65
2024/03/21 02:18:00;0.00;0.00;0.62;0.00;0.00;0.62;7.47;6.77;;;25.10;25.90;;;;;;2263323;61;20357;-66
2024/03/21 02:20:26;0.00;0.00;0.62;0.00;0.00;0.62;10.00;6.50;;;25.10;25.90;;;;;;2263746;61;20353;-65
2024/03/21 02:22:53;0.00;0.00;0.62;0.00;0.00;0.62;7.30;6.00;;;25.10;25.90;;;;;;2263524;61;20986;-64
2024/03/21 02:25:20;0.00;0.00;0.62;0.00;0.00;0.62;6.67;5.93;;;25.10;25.90;;;;;;2263745;61;20384;-62
2024/03/21 02:27:46;0.00;0.00;0.62;0.00;0.00;0.62;6.67;6.07;;;25.10;26.00;;;;;;2263465;61;20379;-65
2024/03/21 02:30:12;0.00;0.00;0.62;0.00;0.00;0.62;9.20;6.30;;;25.10;26.00;;;;;;2263657;61;20398;-65
2024/03/21 02:32:38;0.00;0.00;0.62;0.00;0.00;0.62;7.27;6.50;;;25.10;26.00;;;;;;2263912;61;20357;-65
2024/03/21 02:35:07;0.00;0.00;0.62;0.00;0.00;0.62;8.13;6.37;;;25.10;26.00;;;;;;2259780;61;20357;-65
2024/03/21 02:37:33;0.00;0.00;0.62;0.00;0.00;0.62;7.53;5.90;;;25.10;26.00;;;;;;2260130;61;20543;-65
2024/03/21 02:40:00;0.00;0.00;0.62;0.00;0.00;0.62;8.10;5.80;;;25.10;26.00;;;;;;2257458;61;21100;-65
2024/03/21 02:42:27;0.00;0.00;0.62;0.00;0.00;0.62;6.33;5.73;;;25.10;26.00;;;;;;2263531;61;20918;-64
2024/03/21 02:44:53;0.00;0.00;0.62;0.00;0.00;0.62;7.40;6.27;;;25.10;26.00;;;;;;2263864;61;20357;-64
2024/03/21 02:47:19;0.00;0.00;0.62;0.00;0.00;0.62;6.20;5.60;;;25.10;26.00;;;;;;2263552;61;20373;-64
2024/03/21 02:49:46;0.00;0.00;0.62;0.00;0.00;0.62;7.70;5.70;;;25.10;26.00;;;;;;2263935;61;20887;-65
2024/03/21 02:52:12;0.00;0.00;0.62;0.00;0.00;0.62;6.80;6.20;;;25.10;26.00;;;;;;2263763;61;20464;-65
2024/03/21 02:54:39;0.00;0.00;0.62;0.00;0.00;0.62;7.00;6.37;;;25.10;26.00;;;;;;2263777;61;20372;-65
2024/03/21 02:57:09;0.00;0.00;0.62;0.00;0.00;0.62;6.43;5.23;;;25.10;26.00;;;;;;2263875;61;20369;-64
2024/03/21 02:59:35;0.00;0.00;0.62;0.00;0.00;0.62;8.13;6.27;;;25.10;26.00;;;;;;2260961;61;20363;-64
2024/03/21 03:02:05;0.00;0.00;0.62;0.00;0.00;0.62;6.27;5.60;;;25.10;26.00;;;;;;2262355;61;20740;-65
2024/03/21 03:04:32;0.00;0.00;0.62;0.00;0.00;0.62;6.57;5.17;;;25.10;26.00;;;;;;2263834;61;20356;-65
2024/03/21 03:06:58;0.00;0.00;0.62;0.00;0.00;0.62;7.83;6.00;;;25.10;26.00;;;;;;2259720;61;20377;-64
2024/03/21 03:09:24;0.00;0.00;0.62;0.00;0.00;0.62;7.20;5.53;;;25.10;26.00;;;;;;2262401;61;20368;-65
2024/03/21 03:11:51;0.00;0.00;0.62;0.00;0.00;0.62;6.27;5.30;;;25.10;26.00;;;;;;2258179;61;20353;-64
2024/03/21 03:14:18;0.00;0.00;0.62;0.00;0.00;0.62;6.67;6.03;;;25.10;26.00;;;;;;2263137;61;20879;-65
2024/03/21 03:16:44;0.00;0.00;0.62;0.00;0.00;0.62;5.33;4.80;;;25.10;26.00;;;;;;2263061;61;20373;-65
2024/03/21 03:19:11;0.00;0.00;0.62;0.00;0.00;0.62;7.43;5.90;;;25.10;26.00;;;;;;2263153;61;20863;-64
2024/03/21 03:21:37;0.00;0.00;0.62;0.00;0.00;0.62;5.30;4.80;;;25.10;26.00;;;;;;2263248;61;20918;-64
2024/03/21 03:24:04;0.00;0.00;0.62;0.00;0.00;0.62;6.17;5.57;;;25.10;26.00;;;;;;2263251;61;20392;-64
2024/03/21 03:26:30;0.00;0.00;0.62;0.00;0.00;0.62;6.20;5.60;;;25.10;26.00;;;;;;2263163;61;20997;-65
2024/03/21 03:28:56;0.00;0.00;0.62;0.00;0.00;0.62;5.60;5.10;;;25.10;26.00;;;;;;2263384;61;20400;-65
2024/03/21 03:31:25;0.00;0.00;0.62;0.00;0.00;0.62;5.80;5.20;;;25.10;26.00;;;;;;2263168;61;20456;-64
2024/03/21 03:36:37;0.00;0.00;0.62;0.00;0.00;0.62;5.60;5.10;;;25.10;26.50;;;;;;2263320;61;20433;-64
2024/03/21 03:39:04;0.00;0.00;0.62;0.00;0.00;0.62;6.97;5.60;;;25.10;26.00;;;;;;2263498;61;20374;-64
2024/03/21 03:41:30;0.00;0.00;0.62;0.00;0.00;0.62;6.13;5.53;;;25.10;26.00;;;;;;2263039;61;20740;-64
2024/03/21 03:43:58;0.00;0.00;0.62;0.00;0.00;0.62;6.00;5.40;;;25.10;26.00;;;;;;2263419;61;20372;-64
2024/03/21 03:46:25;0.00;0.00;0.62;0.00;0.00;0.62;6.10;5.57;;;25.10;26.00;;;;;;2263025;61;20921;-64
2024/03/21 03:48:51;0.00;0.00;0.62;0.00;0.00;0.62;5.47;5.03;;;25.10;26.00;;;;;;2262970;61;20773;-64
2024/03/21 03:51:17;0.00;0.00;0.62;0.00;0.00;0.62;6.77;6.13;;;25.10;26.00;;;;;;2263064;61;20764;-64
2024/03/21 03:53:43;0.00;0.00;0.62;0.00;0.00;0.62;6.03;5.43;;;25.10;26.00;;;;;;2263303;61;20359;-64
2024/03/21 03:56:09;0.00;0.00;0.62;0.00;0.00;0.62;5.90;5.30;;;25.10;26.00;;;;;;2263003;61;20383;-64
2024/03/21 03:58:36;0.00;0.00;0.62;0.00;0.00;0.62;5.80;5.17;;;25.00;25.90;;;;;;2263232;61;20357;-64
2024/03/21 04:01:03;0.00;0.00;0.62;0.00;0.00;0.62;6.10;5.47;;;25.00;25.90;;;;;;2262928;61;20364;-64
2024/03/21 04:03:30;0.00;0.00;0.62;0.00;0.00;0.62;5.97;5.40;;;25.10;26.50;;;;;;2262456;61;20372;-64
2024/03/21 04:05:58;0.00;0.00;0.62;0.00;0.00;0.62;5.90;5.30;;;25.10;26.00;;;;;;2262994;61;20377;-64
2024/03/21 04:08:24;0.00;0.00;0.62;0.00;0.00;0.62;6.80;6.07;;;25.10;26.00;;;;;;2263464;61;20361;-64
2024/03/21 04:10:51;0.00;0.00;0.62;0.00;0.00;0.62;5.43;4.93;;;25.10;26.00;;;;;;2262806;61;20357;-64
2024/03/21 04:13:17;0.00;0.00;0.62;0.00;0.00;0.62;5.50;5.00;;;25.10;26.00;;;;;;2259284;61;20356;-64
2024/03/21 04:15:43;0.00;0.00;0.62;0.00;0.00;0.62;5.63;5.13;;;25.00;25.90;;;;;;2263138;61;20369;-64
2024/03/21 04:18:09;0.00;0.00;0.62;0.00;0.00;0.62;5.87;5.27;;;25.00;25.90;;;;;;2262949;61;20349;-64
2024/03/21 04:20:37;0.00;0.00;0.62;0.00;0.00;0.62;5.87;4.93;;;25.10;26.00;;;;;;2262995;61;20365;-64
2024/03/21 04:23:04;0.00;0.00;0.62;0.00;0.00;0.62;8.83;4.90;;;25.00;25.90;;;;;;2263163;61;20791;-64
2024/03/21 04:25:30;0.00;0.00;0.62;0.00;0.00;0.62;6.83;5.83;;;25.00;26.00;;;;;;2263258;61;20388;-64
2024/03/21 04:27:56;0.00;0.00;0.62;0.00;0.00;0.62;5.30;4.80;;;25.00;25.90;;;;;;2263055;61;20414;-64
2024/03/21 04:30:22;0.00;0.00;0.62;0.00;0.00;0.62;5.83;4.90;;;25.00;25.90;;;;;;2263213;61;20353;-64
2024/03/21 04:32:48;0.00;0.00;0.62;0.00;0.00;0.62;5.50;5.00;;;25.00;25.90;;;;;;2262725;61;20349;-64
2024/03/21 04:35:15;0.00;0.00;0.62;0.00;0.00;0.62;6.33;5.50;;;25.00;26.00;;;;;;2263165;61;20361;-64
2024/03/21 04:37:42;0.00;0.00;0.62;0.00;0.00;0.62;8.17;5.20;;;25.10;26.00;;;;;;2259402;61;20357;-64
2024/03/21 04:40:10;0.00;0.00;0.62;0.00;0.00;0.62;6.10;5.50;;;25.00;26.00;;;;;;2263114;61;20885;-64
2024/03/21 04:42:36;0.00;0.00;0.62;0.00;0.00;0.62;6.00;5.00;;;25.00;26.00;;;;;;2262806;61;20975;-64
2024/03/21 04:45:02;0.00;0.00;0.62;0.00;0.00;0.62;6.23;5.03;;;25.00;26.00;;;;;;2263120;61;20353;-64
2024/03/21 04:47:29;0.00;0.00;0.62;0.00;0.00;0.62;5.27;4.50;;;25.00;26.00;;;;;;2262751;61;20379;-64
2024/03/21 04:49:55;0.00;0.00;0.62;0.00;0.00;0.62;5.33;4.83;;;25.00;26.00;;;;;;2263129;61;20389;-64
2024/03/21 04:52:21;0.00;0.00;0.62;0.00;0.00;0.62;5.43;4.93;;;25.00;26.00;;;;;;2263280;61;20345;-64
2024/03/21 04:54:50;0.00;0.00;0.62;0.00;0.00;0.62;5.73;5.13;;;25.00;26.00;;;;;;2263041;61;20353;-64
2024/03/21 04:57:16;0.00;0.00;0.62;0.00;0.00;0.62;5.83;5.17;;;25.00;26.00;;;;;;2259050;61;20395;-64
2024/03/21 04:59:42;0.00;0.00;0.62;0.00;0.00;0.62;7.97;4.93;;;25.00;26.00;;;;;;2262837;61;20851;-64
2024/03/21 05:02:09;0.00;0.00;0.62;0.00;0.00;0.62;6.43;5.83;;;25.00;26.00;;;;;;2262469;61;20446;-64
2024/03/21 05:04:36;0.00;0.00;0.62;0.00;0.00;0.62;8.60;4.80;;;25.00;26.00;;;;;;2262924;61;20396;-64
2024/03/21 05:07:02;0.00;0.00;0.62;0.00;0.00;0.62;5.90;5.30;;;25.00;26.00;;;;;;2262978;61;20375;-64
2024/03/21 05:09:28;0.00;0.00;0.62;0.00;0.00;0.62;5.30;4.80;;;25.00;26.00;;;;;;2263178;61;20353;-64
2024/03/21 05:11:56;0.00;0.00;0.62;0.00;0.00;0.62;4.90;4.50;;;25.00;26.10;;;;;;2262745;61;20750;-64
2024/03/21 05:14:22;0.00;0.00;0.62;0.00;0.00;0.62;5.97;4.90;;;25.00;26.10;;;;;;2262870;61;20506;-64
2024/03/21 05:16:48;0.00;0.00;0.62;0.00;0.00;0.62;5.40;4.87;;;25.00;26.10;;;;;;2262868;61;20369;-64
2024/03/21 05:19:15;0.00;0.00;0.62;0.00;0.00;0.62;5.10;4.60;;;25.00;26.10;;;;;;2262712;61;20436;-64
2024/03/21 05:21:41;0.00;0.00;0.62;0.00;0.00;0.62;5.60;5.10;;;25.00;26.10;;;;;;2262913;61;20359;-64
2024/03/21 05:24:08;0.00;0.00;0.62;0.00;0.00;0.62;5.57;4.43;;;25.00;26.10;;;;;;2262948;61;20392;-64
2024/03/21 05:26:34;0.00;0.00;0.62;0.00;0.00;0.62;5.20;4.70;;;25.00;26.10;;;;;;2262877;61;20409;-64
2024/03/21 05:29:01;0.00;0.00;0.62;0.00;0.00;0.62;4.57;4.17;;;25.00;26.10;;;;;;2263002;61;20349;-64
2024/03/21 05:31:28;0.00;0.00;0.62;0.00;0.00;0.62;6.00;4.57;;;25.00;26.20;;;;;;2262801;61;20475;-64
2024/03/21 05:33:54;0.00;0.00;0.62;0.00;0.00;0.62;5.50;4.87;;;25.00;26.20;;;;;;2258997;61;20428;-64
2024/03/21 05:36:21;0.00;0.00;0.62;0.00;0.00;0.62;6.60;4.07;;;25.00;26.20;;;;;;2262987;61;20399;-64
2024/03/21 05:38:47;0.00;0.00;0.62;0.00;0.00;0.62;5.70;5.20;;;25.00;26.20;;;;;;2259066;61;20905;-64
2024/03/21 05:41:14;0.00;0.00;0.62;0.00;0.00;0.62;4.60;4.20;;;25.00;26.20;;;;;;2262596;61;20419;-64
2024/03/21 05:43:40;0.00;0.00;0.62;0.00;0.00;0.62;5.77;4.60;;;25.00;26.20;;;;;;2262794;61;20879;-64
2024/03/21 05:46:08;0.00;0.00;0.62;0.00;0.00;0.62;6.20;5.30;;;25.00;26.20;;;;;;2263029;61;20369;-64
2024/03/21 05:48:35;0.00;0.00;0.62;0.00;0.00;0.62;4.73;4.23;;;25.00;26.20;;;;;;2262578;61;20377;-64
2024/03/21 05:51:02;0.00;0.00;0.62;0.00;0.00;0.62;7.10;5.00;;;25.00;26.20;;;;;;2262966;61;20349;-64
2024/03/21 05:53:29;0.00;0.00;0.62;0.00;0.00;0.62;5.10;4.60;;;24.90;26.10;;;;;;2263129;61;20350;-64
2024/03/21 05:55:58;0.00;0.00;0.62;0.00;0.00;0.62;5.67;4.60;;;25.00;26.20;;;;;;2262525;61;20423;-64
2024/03/21 05:58:25;0.00;0.00;0.62;0.00;0.00;0.62;4.10;3.70;;;25.00;26.20;;;;;;2262893;61;20805;-64
2024/03/21 06:00:57;0.00;0.00;0.62;0.00;0.00;0.62;5.93;5.33;;;25.00;26.20;;;;;;2262795;61;20905;-64
2024/03/21 06:03:25;0.00;0.00;0.62;0.00;0.00;0.62;5.70;5.20;;;25.00;26.20;;;;;;2262341;61;20905;-64
2024/03/21 06:05:51;0.00;0.00;0.62;0.00;0.00;0.62;6.17;4.57;;;25.00;26.20;;;;;;2263029;61;20377;-64
2024/03/21 06:08:17;0.00;0.00;0.62;0.00;0.00;0.62;5.17;4.67;;;25.00;26.20;;;;;;2263118;61;20368;-64
2024/03/21 06:10:43;0.00;0.00;0.62;0.00;0.00;0.62;7.40;5.80;;;24.90;26.20;;;;;;2262613;61;20414;-64
2024/03/21 06:13:09;0.00;0.00;0.62;0.00;0.00;0.62;5.60;4.93;;;24.90;26.20;;;;;;2262882;61;20915;-64
2024/03/21 06:15:36;0.00;0.00;0.62;0.00;0.00;0.62;6.40;5.57;;;24.90;26.10;;;;;;2259318;61;20727;-64
2024/03/21 06:18:02;0.00;0.00;0.62;0.00;0.00;0.62;5.90;5.10;;;24.90;26.10;;;;;;2258656;61;20357;-64
2024/03/21 06:20:30;0.00;0.00;0.62;0.00;0.00;0.62;6.10;5.47;;;24.90;26.10;;;;;;2259190;61;20392;-64
2024/03/21 06:22:56;0.00;0.00;0.62;0.00;0.00;0.62;5.90;5.40;;;25.00;26.20;;;;;;2262739;61;20366;-64
2024/03/21 06:25:22;0.00;0.00;0.62;0.00;0.00;0.62;5.67;5.07;;;24.90;26.10;;;;;;2262310;61;20403;-64
2024/03/21 06:27:49;0.00;0.00;0.62;0.00;0.00;0.62;6.40;5.80;;;25.00;26.20;;;;;;2263000;61;20391;-64
2024/03/21 06:30:15;0.00;0.00;0.62;0.00;0.00;0.62;6.77;6.07;;;24.90;26.10;;;;;;2262967;61;20847;-64
2024/03/21 06:32:42;0.00;0.00;0.62;0.00;0.00;0.62;6.47;5.87;;;24.90;26.10;;;;;;2262817;61;20357;-64
2024/03/21 06:35:10;0.00;0.00;0.62;0.00;0.00;0.62;8.17;7.13;;;24.90;26.20;;;;;;2263400;61;20780;-64
2024/03/21 06:37:38;0.00;0.00;0.62;0.00;0.00;0.62;9.70;8.13;;;24.90;26.10;;;;;;2263628;61;20872;-64
2024/03/21 06:40:06;0.00;0.00;0.62;0.00;0.00;0.62;9.07;7.87;;;24.90;26.70;;;;;;2263062;61;20970;-64
2024/03/21 06:42:32;0.00;0.00;0.62;0.00;0.00;0.62;8.17;7.03;;;24.90;26.20;;;;;;2263571;61;20484;-64
2024/03/21 06:44:58;0.00;0.00;0.62;0.00;0.00;0.62;9.57;8.17;;;24.90;26.70;;;;;;2263540;61;20388;-64
2024/03/21 06:47:25;0.00;0.00;0.62;0.00;0.00;0.62;11.40;9.27;;;24.90;26.10;;;;;;2259163;61;20381;-64
2024/03/21 06:49:53;0.00;0.00;0.62;0.00;0.00;0.62;9.80;8.80;;;24.90;26.10;;;;;;2264088;61;20762;-64
2024/03/21 06:52:19;0.00;0.00;0.62;0.00;0.00;0.62;9.80;8.60;;;24.90;26.10;;;;;;2263390;61;20514;-64
2024/03/21 06:54:47;0.00;0.00;0.62;0.00;0.00;0.62;10.73;9.17;;;24.90;26.20;;;;;;2263109;61;20357;-64
2024/03/21 06:57:13;0.00;0.00;0.62;0.00;0.00;0.62;9.53;8.57;;;24.90;26.10;;;;;;2263549;61;20426;-64
2024/03/21 06:59:40;0.00;0.00;0.62;0.00;0.00;0.62;10.60;9.07;;;24.90;26.10;;;;;;2263498;61;20440;-63
2024/03/21 07:02:07;0.00;0.00;0.62;0.00;0.00;0.62;10.77;8.93;;;24.90;26.10;;;;;;2262804;61;20850;-64
2024/03/21 07:04:34;0.00;0.00;0.62;0.00;0.00;0.62;10.63;8.70;;;24.90;26.10;;;;;;2263436;61;20927;-64
2024/03/21 07:07:00;0.00;0.00;0.62;0.00;0.00;0.62;10.97;9.47;;;24.90;26.10;;;;;;2263179;61;20383;-64
2024/03/21 07:09:26;0.00;0.00;0.62;0.00;0.00;0.62;11.67;9.47;;;24.90;26.10;;;;;;2263123;61;20445;-64
2024/03/21 07:11:53;0.00;0.00;0.62;0.00;0.00;0.62;10.87;9.77;;;24.90;26.70;;;;;;2263411;61;20807;-64
2024/03/21 07:14:20;0.00;0.00;0.62;0.00;0.00;0.62;11.80;10.60;;;24.90;26.20;;;;;;2263687;61;20397;-64
2024/03/21 07:16:46;0.00;0.00;0.62;0.00;0.00;0.62;12.50;10.87;;;24.90;26.10;;;;;;2262994;61;20894;-64
2024/03/21 07:19:12;0.00;0.00;0.62;0.00;0.00;0.62;12.07;10.77;;;24.90;26.10;;;;;;2263588;61;20953;-64
2024/03/21 07:21:38;0.00;0.00;0.62;0.00;0.00;0.62;14.37;10.27;;;24.90;26.70;;;;;;2263213;61;20438;-64
2024/03/21 07:24:05;0.00;0.00;0.62;0.00;0.00;0.62;11.93;10.73;;;24.90;26.20;;;;;;2259104;61;20400;-64
2024/03/21 07:26:31;0.00;0.00;0.62;0.00;0.00;0.62;12.53;11.23;;;24.90;26.10;;;;;;2263087;61;20422;-64
2024/03/21 07:28:59;0.00;0.00;0.62;0.00;0.00;0.62;12.17;9.90;;;24.90;26.10;;;;;;2263420;61;20353;-64
2024/03/21 07:31:27;0.00;0.00;0.62;0.00;0.00;0.62;11.77;9.90;;;24.90;26.10;;;;;;2263036;61;20354;-64
2024/03/21 07:33:53;0.00;0.00;0.62;0.00;0.00;0.62;11.37;10.13;;;24.90;26.10;;;;;;2263758;61;20387;-64
2024/03/21 07:36:19;0.00;0.00;0.62;0.00;0.00;0.62;10.83;9.73;;;24.90;26.10;;;;;;2259328;61;20377;-64
2024/03/21 07:38:46;0.00;0.00;0.62;0.00;0.00;0.62;12.27;9.20;;;24.90;26.10;;;;;;2263072;61;20364;-64
2024/03/21 07:41:12;0.00;0.00;0.62;0.00;0.00;0.62;10.70;9.23;;;24.90;26.60;;;;;;2263343;61;20365;-64
2024/03/21 07:43:40;0.00;0.00;0.62;0.00;0.00;0.62;10.90;9.67;;;24.90;26.10;;;;;;2263204;61;20837;-64
2024/03/21 07:46:08;0.00;0.00;0.62;0.00;0.00;0.62;11.43;10.23;;;24.90;26.10;;;;;;2262756;61;20464;-64
2024/03/21 07:48:34;0.00;0.00;0.62;0.00;0.00;0.62;9.57;8.57;;;24.90;26.10;;;;;;2263330;61;20415;-64
2024/03/21 07:51:00;0.00;0.00;0.62;0.00;0.00;0.62;9.70;8.70;;;24.90;26.10;;;;;;2259197;61;20687;-64
2024/03/21 07:53:26;0.00;0.00;0.62;0.00;0.00;0.62;9.80;8.37;;;24.90;26.00;;;;;;2262990;61;20727;-64
2024/03/21 07:55:53;0.00;0.00;0.62;0.00;0.00;0.62;10.13;8.67;;;24.90;26.00;;;;;;2259496;61;20377;-64
2024/03/21 07:58:19;0.00;0.00;0.62;0.00;0.00;0.62;12.00;9.43;;;24.90;26.00;;;;;;2259283;61;20361;-64
2024/03/21 08:00:45;0.00;0.00;0.62;0.00;0.00;0.62;8.03;7.20;;;24.90;26.00;;;;;;2262879;61;20444;-64
2024/03/21 08:03:13;0.00;0.00;0.62;0.00;0.00;0.62;7.50;6.60;;;24.90;26.00;;;;;;2263002;61;20412;-64
2024/03/21 08:05:39;0.00;0.00;0.62;0.00;0.00;0.62;8.67;7.70;;;24.90;26.00;;;;;;2263188;61;20380;-64
2024/03/21 08:08:05;0.00;0.00;0.62;0.00;0.00;0.62;8.93;8.07;;;24.90;25.90;;;;;;2262797;61;20349;-64
2024/03/21 08:10:31;0.00;0.00;0.62;0.00;0.00;0.62;8.03;6.63;;;24.90;26.00;;;;;;2263435;61;20353;-64
2024/03/21 08:12:58;0.00;0.00;0.62;0.00;0.00;0.62;8.87;7.80;;;24.80;25.90;;;;;;2263194;61;20871;-63
2024/03/21 08:15:24;0.00;0.00;0.62;0.00;0.00;0.62;8.60;7.70;;;24.90;25.90;;;;;;2263049;61;20399;-63
2024/03/21 08:17:50;0.00;0.00;0.62;0.00;0.00;0.62;8.43;7.40;;;24.90;25.90;;;;;;2264104;61;20353;-63
2024/03/21 08:20:17;0.00;0.00;0.62;0.00;0.00;0.62;8.03;6.90;;;24.90;25.90;;;;;;2263569;61;20349;-63
2024/03/21 08:22:43;0.00;0.00;0.62;0.00;0.00;0.62;7.80;7.00;;;24.80;25.80;;;;;;2263612;61;20373;-63
2024/03/21 08:25:10;0.00;0.00;0.62;0.00;0.00;0.62;7.60;6.60;;;24.80;25.80;;;;;;2263713;61;20349;-63
2024/03/21 08:27:36;0.00;0.00;0.62;0.00;0.00;0.62;7.37;6.57;;;24.80;25.80;;;;;;2263292;61;20369;-63
2024/03/21 08:30:03;0.00;0.00;0.62;0.00;0.00;0.62;7.77;7.07;;;24.80;25.70;;;;;;2263208;61;20365;-66
2024/03/21 08:32:30;0.00;0.00;0.62;0.00;0.00;0.62;6.87;6.17;;;24.80;25.70;;;;;;2263217;61;20357;-63
2024/03/21 08:34:57;0.00;0.00;0.62;0.00;0.00;0.62;7.00;6.20;;;24.80;25.70;;;;;;2263244;61;20353;-63
2024/03/21 08:37:24;0.00;0.00;0.62;0.00;0.00;0.62;8.10;6.20;;;24.80;25.70;;;;;;2263341;61;20942;-63
2024/03/21 08:39:50;0.00;0.00;0.62;0.00;0.00;0.62;6.73;5.83;;;24.80;25.60;;;;;;2263457;61;20393;-63
2024/03/21 08:42:16;0.00;0.00;0.62;0.00;0.00;0.62;8.10;6.90;;;24.80;25.60;;;;;;2263590;61;20655;-63
2024/03/21 08:44:43;0.00;0.00;0.62;0.00;0.00;0.62;8.80;6.70;;;24.80;25.60;;;;;;2263233;61;20389;-64
2024/03/21 08:47:09;0.00;0.00;0.62;0.00;0.00;0.62;6.70;6.00;;;24.80;25.60;;;;;;2263712;61;20381;-63
2024/03/21 08:49:35;0.00;0.00;0.62;0.00;0.00;0.62;10.23;6.30;;;24.80;25.60;;;;;;2259189;61;20361;-63
2024/03/21 08:52:02;0.00;0.00;0.62;0.00;0.00;0.62;6.20;5.60;;;24.80;25.60;;;;;;2262903;61;20440;-63
2024/03/21 08:54:30;0.00;0.00;0.62;0.00;0.00;0.62;7.00;6.13;;;24.80;25.60;;;;;;2263261;61;20912;-63
2024/03/21 08:56:56;0.00;0.00;0.62;0.00;0.00;0.62;6.47;5.77;;;24.80;25.50;;;;;;2263199;61;20477;-63
2024/03/21 08:59:22;0.00;0.00;0.62;0.00;0.00;0.62;6.53;5.37;;;24.80;25.50;;;;;;2263325;61;20369;-65
2024/03/21 09:01:48;0.00;0.00;0.62;0.00;0.00;0.62;8.00;5.20;;;24.80;25.50;;;;;;2262632;61;20384;-65
2024/03/21 09:04:18;0.00;0.00;0.62;0.00;0.00;0.62;5.70;5.10;;;24.80;25.50;;;;;;2263211;61;20419;-63
2024/03/21 09:06:44;0.00;0.00;0.62;0.00;0.00;0.62;6.70;5.23;;;24.80;25.50;;;;;;2262965;61;20372;-64
2024/03/21 09:09:10;0.00;0.00;0.62;0.00;0.00;0.62;6.10;4.90;;;24.80;25.50;;;;;;2263323;61;20353;-63
2024/03/21 09:11:38;0.00;0.00;0.62;0.00;0.00;0.62;5.57;4.70;;;24.80;25.50;;;;;;2263264;61;20349;-63
2024/03/21 09:14:04;0.00;0.00;0.62;0.00;0.00;0.62;6.50;5.43;;;24.80;25.50;;;;;;2263163;61;20910;-64
2024/03/21 09:16:30;0.00;0.00;0.62;0.00;0.00;0.62;5.00;4.47;;;24.80;25.50;;;;;;2263037;61;20824;-63
2024/03/21 09:18:56;0.00;0.00;0.62;0.00;0.00;0.62;5.17;4.40;;;24.70;25.40;;;;;;2262979;61;20389;-63
2024/03/21 09:21:22;0.00;0.00;0.62;0.00;0.00;0.62;6.90;4.80;;;24.80;25.40;;;;;;2263023;61;20357;-63
2024/03/21 09:23:48;0.00;0.00;0.62;0.00;0.00;0.62;4.60;4.07;;;24.70;25.40;;;;;;2262852;61;20373;-63
2024/03/21 09:26:17;0.00;0.00;0.62;0.00;0.00;0.62;6.10;4.40;;;24.70;25.30;;;;;;2263090;61;20373;-63
2024/03/21 09:28:44;0.00;0.00;0.62;0.00;0.00;0.62;5.33;4.27;;;24.70;25.30;;;;;;2262874;61;20396;-63
2024/03/21 09:31:10;0.00;0.00;0.62;0.00;0.00;0.62;4.80;3.97;;;24.70;25.30;;;;;;2263082;61;20357;-63
2024/03/21 09:33:37;0.00;0.00;0.62;0.00;0.00;0.62;4.93;4.43;;;24.70;25.30;;;;;;2262946;61;20459;-63
2024/03/21 09:36:05;0.00;0.00;0.62;0.00;0.00;0.62;6.40;3.63;;;24.70;25.30;;;;;;2262822;61;20404;-63
2024/03/21 09:38:32;0.00;0.00;0.62;0.00;0.00;0.62;8.20;4.20;;;24.70;25.30;;;;;;2263059;61;20349;-63
2024/03/21 09:41:00;0.00;0.00;0.62;0.00;0.00;0.62;4.20;3.43;;;24.70;25.30;;;;;;2262909;61;20344;-64